Time,TemperatureF,DewpointF,PressureIn,WindDirection,WindDirectionDegrees,WindSpeedMPH,WindSpeedGustMPH,Humidity,HourlyPrecipIn,Conditions,Clouds,dailyrainin,SoftwareType,DateUTC
2013-02-02 01:52:00,29.0,21.0,30.01,West,264,4.0,6.0,72,0.00,,,0.00,,2013-02-02 07:52:00,
2013-02-02 02:01:00,29.0,21.0,30.01,West,264,4.0,6.0,72,0.00,,,0.00,,2013-02-02 08:01:00,
2013-02-02 02:11:00,29.0,21.0,30.01,West,264,4.0,6.0,72,0.00,,,0.00,,2013-02-02 08:11:00,
2013-02-02 02:21:00,29.0,21.0,30.01,West,264,4.0,6.0,72,0.00,,,0.00,,2013-02-02 08:21:00,
2013-02-02 03:52:00,26.0,11.0,30.01,NE,48,10.0,14.0,53,0.00,,,0.00,,2013-02-02 09:52:00,
2013-02-02 04:01:00,26.0,11.0,30.01,NE,48,10.0,14.0,53,0.00,,,0.00,,2013-02-02 10:01:00,
2013-02-02 04:11:00,26.0,11.0,30.01,NE,48,10.0,14.0,53,0.00,,,0.00,,2013-02-02 10:11:00,
2013-02-02 04:21:00,26.0,11.0,30.01,NE,48,10.0,14.0,53,0.00,,,0.00,,2013-02-02 10:21:00,
2013-02-02 05:52:00,19.0,7.0,30.07,North,9,6.0,11.0,60,0.00,,,0.00,,2013-02-02 11:52:00,
2013-02-02 06:02:00,19.0,7.0,30.07,North,9,6.0,11.0,60,0.00,,,0.00,,2013-02-02 12:02:00,
2013-02-02 06:11:00,19.0,7.0,30.07,North,9,6.0,11.0,60,0.00,,,0.00,,2013-02-02 12:11:00,
2013-02-02 06:22:00,19.0,7.0,30.07,North,9,6.0,11.0,60,0.00,,,0.00,,2013-02-02 12:22:00,
2013-02-02 07:52:00,17.0,6.0,30.13,NNE,27,6.0,11.0,60,0.00,,,0.00,,2013-02-02 13:52:00,
2013-02-02 08:02:00,17.0,6.0,30.13,NNE,27,6.0,11.0,60,0.00,,,0.00,,2013-02-02 14:02:00,
2013-02-02 08:11:00,17.0,6.0,30.13,NNE,27,6.0,11.0,60,0.00,,,0.00,,2013-02-02 14:11:00,
2013-02-02 08:22:00,17.0,6.0,30.13,NNE,27,6.0,11.0,60,0.00,,,0.00,,2013-02-02 14:22:00,
2013-02-02 09:52:00,17.0,0.0,30.16,NE,52,3.0,8.0,47,0.00,,,0.00,,2013-02-02 15:52:00,
2013-02-02 13:52:00,21.0,2.0,30.13,WNW,296,6.0,8.0,43,0.00,,,0.00,,2013-02-02 19:52:00,
2013-02-02 14:01:00,21.0,2.0,30.13,WNW,296,6.0,8.0,43,0.00,,,0.00,,2013-02-02 20:01:00,
2013-02-02 14:11:00,21.0,2.0,30.13,WNW,296,6.0,8.0,43,0.00,,,0.00,,2013-02-02 20:11:00,
2013-02-02 14:21:00,21.0,2.0,30.13,WNW,296,6.0,8.0,43,0.00,,,0.00,,2013-02-02 20:21:00,
2013-02-02 15:52:00,21.0,6.0,30.13,NW,311,3.0,5.0,52,0.00,,,0.00,,2013-02-02 21:52:00,
2013-02-02 16:02:00,21.0,6.0,30.13,NW,311,3.0,5.0,52,0.00,,,0.00,,2013-02-02 22:02:00,
2013-02-02 16:12:00,21.0,6.0,30.13,NW,311,3.0,5.0,52,0.00,,,0.00,,2013-02-02 22:12:00,
2013-02-02 16:21:00,21.0,6.0,30.13,NW,311,3.0,5.0,52,0.00,,,0.00,,2013-02-02 22:21:00,
2013-02-02 17:52:00,21.0,7.0,30.07,WSW,256,3.0,4.0,55,0.00,,,0.00,,2013-02-02 23:52:00,
2013-02-02 18:02:00,21.0,7.0,30.07,WSW,256,3.0,4.0,55,0.00,,,0.00,,2013-02-03 00:02:00,
2013-02-02 18:11:00,21.0,7.0,30.07,WSW,256,3.0,4.0,55,0.00,,,0.00,,2013-02-03 00:11:00,
2013-02-02 18:21:00,21.0,7.0,30.07,WSW,256,3.0,4.0,55,0.00,,,0.00,,2013-02-03 00:21:00,
2013-02-02 19:52:00,20.0,9.0,30.04,SSW,197,3.0,5.0,62,0.00,,,0.00,,2013-02-03 01:52:00,
2013-02-02 23:52:00,26.0,20.0,29.95,North,4,0.0,4.0,77,0.00,,,0.00,,2013-02-03 05:52:00,